createdAt,value
2017-03-20T00:00:55.107Z,8.77
2017-03-20T00:01:54.781Z,8.72
2017-03-20T00:02:55.091Z,8.69
2017-03-20T00:03:54.766Z,8.69
2017-03-20T00:04:55.073Z,8.69
2017-03-20T00:05:54.746Z,8.68
2017-03-20T00:06:54.739Z,8.72
2017-03-20T00:07:54.414Z,8.62
2017-03-20T00:08:55.035Z,8.65
2017-03-20T00:09:55.073Z,8.68
2017-03-20T00:10:55.008Z,8.65
2017-03-20T00:11:54.686Z,8.65
2017-03-20T00:12:54.680Z,8.68
2017-03-20T00:13:54.982Z,8.64
2017-03-20T00:14:54.979Z,8.61
2017-03-20T00:15:54.962Z,8.62
2017-03-20T00:16:54.957Z,8.61
2017-03-20T00:17:54.318Z,8.6
2017-03-20T00:18:54.625Z,8.53
2017-03-20T00:19:54.615Z,8.62
2017-03-20T00:20:54.601Z,8.52
2017-03-20T00:21:54.591Z,8.58
2017-03-20T00:22:54.588Z,8.5
2017-03-20T00:23:54.890Z,8.57
2017-03-20T00:24:54.880Z,8.61
2017-03-20T00:25:54.864Z,8.54
2017-03-20T00:26:54.854Z,8.49
2017-03-20T00:27:54.848Z,8.64
2017-03-20T00:28:54.839Z,8.65
2017-03-20T00:29:54.829Z,8.5
2017-03-20T00:30:54.504Z,8.6
2017-03-20T00:31:54.494Z,8.61
2017-03-20T00:32:54.489Z,8.57
2017-03-20T00:33:54.793Z,8.57
2017-03-20T00:34:54.463Z,8.54
2017-03-20T00:35:54.453Z,8.54
2017-03-20T00:36:54.449Z,8.49
2017-03-20T00:37:54.443Z,8.6
2017-03-20T00:38:54.429Z,8.53
2017-03-20T00:39:54.733Z,8.52
2017-03-20T00:40:54.093Z,8.57
2017-03-20T00:41:54.709Z,8.47
2017-03-20T00:42:54.709Z,8.46
2017-03-20T00:43:54.375Z,8.49
2017-03-20T00:44:54.686Z,8.47
2017-03-20T00:45:54.682Z,8.58
2017-03-20T00:46:54.661Z,8.58
2017-03-20T00:47:54.348Z,8.46
2017-03-20T00:48:54.329Z,8.5
2017-03-20T00:49:54.628Z,8.52
2017-03-20T00:50:54.631Z,8.44
2017-03-20T00:51:54.611Z,8.49
2017-03-20T00:52:54.606Z,8.47
2017-03-20T00:53:54.597Z,8.49
2017-03-20T00:54:54.587Z,8.5
2017-03-20T00:55:53.939Z,8.49
2017-03-20T00:56:54.244Z,8.44
2017-03-20T00:57:54.554Z,8.39
2017-03-20T00:58:54.546Z,8.4
2017-03-20T00:59:54.227Z,8.35
2017-03-20T01:00:54.209Z,8.39
2017-03-20T01:01:54.200Z,8.36
2017-03-20T01:02:54.193Z,8.42
2017-03-20T01:03:54.495Z,8.34
2017-03-20T01:04:54.494Z,8.43
2017-03-20T01:05:54.470Z,8.36
2017-03-20T01:06:54.466Z,8.35
2017-03-20T01:07:54.137Z,8.43
2017-03-20T01:08:54.448Z,8.34
2017-03-20T01:09:54.437Z,8.36
2017-03-20T01:10:54.103Z,8.36
2017-03-20T01:11:54.094Z,8.35
2017-03-20T01:12:54.405Z,8.35
2017-03-20T01:13:54.395Z,8.39
2017-03-20T01:14:54.385Z,8.36
2017-03-20T01:15:54.375Z,8.29
2017-03-20T01:16:54.357Z,8.28
2017-03-20T01:17:54.350Z,8.25
2017-03-20T01:18:54.383Z,8.17
2017-03-20T01:19:54.338Z,8.22
2017-03-20T01:20:54.320Z,8.36
2017-03-20T01:21:54.309Z,8.29
2017-03-20T01:22:54.299Z,8.11
2017-03-20T01:23:54.293Z,8.07
2017-03-20T01:24:54.287Z,8.11
2017-03-20T01:25:54.267Z,8.14
2017-03-20T01:26:54.254Z,8.03
2017-03-20T01:27:54.253Z,8.01
2017-03-20T01:28:54.239Z,7.91
2017-03-20T01:29:54.232Z,7.75
2017-03-20T01:30:54.219Z,7.77
2017-03-20T01:31:54.205Z,7.86
2017-03-20T01:32:54.197Z,7.71
2017-03-20T01:33:54.186Z,7.63
2017-03-20T01:34:54.177Z,7.73
2017-03-20T01:35:54.169Z,7.71
2017-03-20T01:36:54.155Z,7.64
2017-03-20T01:37:53.834Z,7.63
2017-03-20T01:38:54.143Z,7.64
2017-03-20T01:39:54.126Z,7.68
2017-03-20T01:40:54.116Z,7.58
2017-03-20T01:41:53.473Z,7.63
2017-03-20T01:42:53.783Z,7.58
2017-03-20T01:43:54.086Z,7.64
2017-03-20T01:44:54.082Z,7.58
2017-03-20T01:45:54.060Z,7.63
2017-03-20T01:46:54.050Z,7.64
2017-03-20T01:47:54.048Z,7.64
2017-03-20T01:48:54.034Z,7.68
2017-03-20T01:49:53.710Z,7.75
2017-03-20T01:50:54.009Z,7.74
2017-03-20T01:51:53.993Z,7.8
2017-03-20T01:52:53.677Z,7.83
2017-03-20T01:53:53.670Z,7.8
2017-03-20T01:54:53.972Z,7.77
2017-03-20T01:55:53.645Z,7.86
2017-03-20T01:56:53.631Z,7.82
2017-03-20T01:57:53.627Z,7.78
2017-03-20T01:58:53.923Z,7.82
2017-03-20T01:59:53.914Z,7.83
2017-03-20T02:00:53.904Z,7.88
2017-03-20T02:01:53.899Z,7.86
2017-03-20T02:02:53.885Z,7.91
2017-03-20T02:03:53.877Z,7.86
2017-03-20T02:04:53.863Z,7.86
2017-03-20T02:05:53.852Z,7.95
2017-03-20T02:06:53.841Z,7.83
2017-03-20T02:07:53.519Z,7.89
2017-03-20T02:08:53.823Z,7.77
2017-03-20T02:09:53.494Z,7.77
2017-03-20T02:10:53.801Z,7.77
2017-03-20T02:11:53.472Z,7.82
2017-03-20T02:12:53.466Z,7.86
2017-03-20T02:13:53.778Z,7.8
2017-03-20T02:14:53.757Z,7.78
2017-03-20T02:15:53.120Z,7.73
2017-03-20T02:16:53.739Z,7.78
2017-03-20T02:17:53.449Z,7.71
2017-03-20T02:18:53.406Z,7.77
2017-03-20T02:19:53.717Z,7.63
2017-03-20T02:20:53.690Z,7.59
2017-03-20T02:21:53.685Z,7.63
2017-03-20T02:22:53.675Z,7.59
2017-03-20T02:23:53.660Z,7.71
2017-03-20T02:24:53.653Z,7.77
2017-03-20T02:25:53.633Z,7.7
2017-03-20T02:26:53.628Z,7.8
2017-03-20T02:27:53.302Z,7.86
2017-03-20T02:28:53.613Z,7.85
2017-03-20T02:29:53.597Z,7.82
2017-03-20T02:30:53.268Z,7.74
2017-03-20T02:31:53.576Z,7.8
2017-03-20T02:32:53.568Z,7.82
2017-03-20T02:33:53.240Z,7.77
2017-03-20T02:34:53.550Z,7.82
2017-03-20T02:35:53.531Z,7.77
2017-03-20T02:36:53.527Z,7.77
2017-03-20T02:37:53.514Z,7.78
2017-03-20T02:38:53.507Z,7.75
2017-03-20T02:39:53.493Z,7.85
2017-03-20T02:40:52.853Z,7.8
2017-03-20T02:41:53.467Z,7.8
2017-03-20T02:42:53.462Z,7.85
2017-03-20T02:43:53.135Z,7.83
2017-03-20T02:44:53.437Z,7.8
2017-03-20T02:45:53.112Z,7.88
2017-03-20T02:46:53.101Z,7.82
2017-03-20T02:47:53.405Z,7.78
2017-03-20T02:48:53.403Z,7.78
2017-03-20T02:49:53.068Z,7.88
2017-03-20T02:50:53.374Z,7.83
2017-03-20T02:51:53.048Z,7.86
2017-03-20T02:52:53.042Z,7.86
2017-03-20T02:53:53.352Z,7.85
2017-03-20T02:54:53.020Z,7.78
2017-03-20T02:55:53.321Z,7.88
2017-03-20T02:56:53.000Z,7.86
2017-03-20T02:57:52.990Z,7.78
2017-03-20T02:58:53.290Z,7.86
2017-03-20T02:59:53.312Z,7.85
2017-03-20T03:00:53.273Z,7.89
2017-03-20T03:01:52.943Z,7.85
2017-03-20T03:02:52.943Z,7.85
2017-03-20T03:03:53.237Z,7.96
2017-03-20T03:04:52.911Z,7.88
2017-03-20T03:05:53.216Z,7.91
2017-03-20T03:06:52.905Z,7.85
2017-03-20T03:07:52.882Z,7.8
2017-03-20T03:08:52.877Z,7.95
2017-03-20T03:09:52.859Z,7.82
2017-03-20T03:10:52.848Z,7.88
2017-03-20T03:11:52.842Z,7.91
2017-03-20T03:12:52.826Z,7.85
2017-03-20T03:13:53.133Z,7.89
2017-03-20T03:14:52.502Z,7.88
2017-03-20T03:15:53.108Z,7.89
2017-03-20T03:16:53.101Z,7.82
2017-03-20T03:17:53.090Z,7.86
2017-03-20T03:18:53.086Z,7.82
2017-03-20T03:19:53.069Z,7.83
2017-03-20T03:20:53.059Z,7.88
2017-03-20T03:21:53.046Z,7.96
2017-03-20T03:22:53.041Z,7.82
2017-03-20T03:23:53.037Z,7.95
2017-03-20T03:24:53.019Z,7.85
2017-03-20T03:25:53.005Z,7.85
2017-03-20T03:26:52.996Z,7.88
2017-03-20T03:27:52.990Z,7.86
2017-03-20T03:28:52.993Z,7.96
2017-03-20T03:29:52.965Z,7.8
2017-03-20T03:30:52.953Z,7.75
2017-03-20T03:31:52.945Z,7.77
2017-03-20T03:32:52.980Z,7.8
2017-03-20T03:33:52.921Z,7.74
2017-03-20T03:34:52.913Z,7.82
2017-03-20T03:35:52.906Z,7.82
2017-03-20T03:36:52.610Z,7.82
2017-03-20T03:37:52.887Z,7.75
2017-03-20T03:38:52.870Z,7.77
2017-03-20T03:39:52.862Z,7.82
2017-03-20T03:40:52.850Z,7.86
2017-03-20T03:41:52.835Z,7.77
2017-03-20T03:42:52.841Z,7.83
2017-03-20T03:43:52.820Z,7.78
2017-03-20T03:44:52.495Z,7.77
2017-03-20T03:45:52.792Z,7.75
2017-03-20T03:46:52.788Z,7.61
2017-03-20T03:47:52.778Z,7.67
2017-03-20T03:48:52.770Z,7.59
2017-03-20T03:49:52.757Z,7.55
2017-03-20T03:50:52.744Z,7.56
2017-03-20T03:51:52.742Z,7.51
2017-03-20T03:52:52.412Z,7.45
2017-03-20T03:53:52.722Z,7.48
2017-03-20T03:54:52.388Z,7.4
2017-03-20T03:55:52.375Z,7.47
2017-03-20T03:56:52.361Z,7.36
2017-03-20T03:57:52.357Z,7.36
2017-03-20T03:58:52.347Z,7.34
2017-03-20T03:59:52.336Z,7.23
2017-03-20T04:00:52.010Z,7.26
2017-03-20T04:01:52.629Z,7.18
2017-03-20T04:02:52.626Z,7.19
2017-03-20T04:03:52.605Z,7.21
2017-03-20T04:04:52.281Z,7.18
2017-03-20T04:05:52.280Z,7.11
2017-03-20T04:06:52.571Z,7.18
2017-03-20T04:07:52.563Z,7.08
2017-03-20T04:08:52.551Z,7.09
2017-03-20T04:09:52.232Z,7.01
2017-03-20T04:10:52.531Z,7.05
2017-03-20T04:11:52.205Z,7.04
2017-03-20T04:12:52.516Z,7.01
2017-03-20T04:13:52.503Z,7.03
2017-03-20T04:14:52.484Z,7.15
2017-03-20T04:15:52.475Z,7.16
2017-03-20T04:16:52.467Z,7.15
2017-03-20T04:17:52.456Z,7.15
2017-03-20T04:18:52.444Z,7.15
2017-03-20T04:19:52.430Z,7.12
2017-03-20T04:20:51.792Z,7.19
2017-03-20T04:21:51.779Z,7.21
2017-03-20T04:22:52.400Z,7.23
2017-03-20T04:23:52.080Z,7.31
2017-03-20T04:24:52.382Z,7.39
2017-03-20T04:25:52.360Z,7.44
2017-03-20T04:26:52.357Z,7.36
2017-03-20T04:27:52.346Z,7.39
2017-03-20T04:28:52.333Z,7.51
2017-03-20T04:29:52.009Z,7.48
2017-03-20T04:30:52.313Z,7.47
2017-03-20T04:31:52.301Z,7.4
2017-03-20T04:32:52.291Z,7.45
2017-03-20T04:33:51.961Z,7.54
2017-03-20T04:34:52.268Z,7.47
2017-03-20T04:35:52.255Z,7.47
2017-03-20T04:36:52.244Z,7.48
2017-03-20T04:37:52.239Z,7.51
2017-03-20T04:38:51.912Z,7.59
2017-03-20T04:39:52.214Z,7.52
2017-03-20T04:40:52.207Z,7.45
2017-03-20T04:41:52.189Z,7.47
2017-03-20T04:42:51.868Z,7.54
2017-03-20T04:43:51.865Z,7.52
2017-03-20T04:44:52.152Z,7.48
2017-03-20T04:45:52.145Z,7.49
2017-03-20T04:46:51.817Z,7.56
2017-03-20T04:47:52.128Z,7.54
2017-03-20T04:48:52.115Z,7.51
2017-03-20T04:49:52.100Z,7.48
2017-03-20T04:50:51.774Z,7.47
2017-03-20T04:51:51.449Z,7.51
2017-03-20T04:52:51.760Z,7.58
2017-03-20T04:53:52.057Z,7.45
2017-03-20T04:54:52.048Z,7.52
2017-03-20T04:55:52.032Z,7.52
2017-03-20T04:56:52.022Z,7.4
2017-03-20T04:57:51.701Z,7.39
2017-03-20T04:58:52.011Z,7.41
2017-03-20T04:59:51.992Z,7.51
2017-03-20T05:00:51.984Z,7.51
2017-03-20T05:01:51.654Z,7.58
2017-03-20T05:02:52.000Z,7.56
2017-03-20T05:03:51.639Z,7.52
2017-03-20T05:04:51.940Z,7.52
2017-03-20T05:05:51.608Z,7.54
2017-03-20T05:06:51.917Z,7.51
2017-03-20T05:07:51.590Z,7.55
2017-03-20T05:08:51.894Z,7.49
2017-03-20T05:09:51.882Z,7.49
2017-03-20T05:10:51.870Z,7.51
2017-03-20T05:11:51.864Z,7.54
2017-03-20T05:12:51.535Z,7.56
2017-03-20T05:13:51.842Z,7.47
2017-03-20T05:14:51.827Z,7.59
2017-03-20T05:15:51.815Z,7.54
2017-03-20T05:16:51.492Z,7.51
2017-03-20T05:17:51.798Z,7.49
2017-03-20T05:18:51.471Z,7.54
2017-03-20T05:19:51.458Z,7.52
2017-03-20T05:20:51.445Z,7.63
2017-03-20T05:21:51.746Z,7.52
2017-03-20T05:22:51.426Z,7.52
2017-03-20T05:23:51.727Z,7.56
2017-03-20T05:24:51.721Z,7.63
2017-03-20T05:25:51.709Z,7.58
2017-03-20T05:26:51.690Z,7.56
2017-03-20T05:27:51.683Z,7.59
2017-03-20T05:28:51.675Z,7.58
2017-03-20T05:29:51.664Z,7.63
2017-03-20T05:30:51.650Z,7.54
2017-03-20T05:31:51.640Z,7.64
2017-03-20T05:32:51.630Z,7.7
2017-03-20T05:33:51.619Z,7.64
2017-03-20T05:34:51.610Z,7.63
2017-03-20T05:35:51.623Z,7.63
2017-03-20T05:36:51.271Z,7.59
2017-03-20T05:37:51.264Z,7.58
2017-03-20T05:38:51.252Z,7.61
2017-03-20T05:39:51.589Z,7.58
2017-03-20T05:40:51.545Z,7.63
2017-03-20T05:41:51.527Z,7.7
2017-03-20T05:42:51.208Z,7.68
2017-03-20T05:43:51.511Z,7.74
2017-03-20T05:44:51.510Z,7.73
2017-03-20T05:45:51.486Z,7.74
2017-03-20T05:46:51.157Z,7.88
2017-03-20T05:47:51.154Z,7.8
2017-03-20T05:48:51.457Z,7.88
2017-03-20T05:49:51.448Z,7.78
2017-03-20T05:50:51.430Z,7.8
2017-03-20T05:51:51.421Z,7.74
2017-03-20T05:52:51.101Z,7.82
2017-03-20T05:53:51.404Z,7.78
2017-03-20T05:54:51.393Z,7.78
2017-03-20T05:55:51.377Z,7.83
2017-03-20T05:56:51.367Z,7.86
2017-03-20T05:57:51.355Z,7.86
2017-03-20T05:58:51.347Z,7.96
2017-03-20T05:59:51.340Z,7.88
2017-03-20T06:00:51.333Z,7.96
2017-03-20T06:01:51.311Z,7.98
2017-03-20T06:02:51.307Z,7.98
2017-03-20T06:03:51.299Z,8.03
2017-03-20T06:04:50.972Z,8.01
2017-03-20T06:05:51.272Z,8.04
2017-03-20T06:06:51.261Z,8.04
2017-03-20T06:08:51.236Z,8.11
2017-03-20T06:09:51.224Z,8.06
2017-03-20T06:10:51.215Z,8.07
2017-03-20T06:11:51.202Z,8.09
2017-03-20T06:12:51.201Z,8.14
2017-03-20T06:13:51.186Z,8.16
2017-03-20T06:14:51.174Z,8.13
2017-03-20T06:15:51.170Z,8.09
2017-03-20T06:16:51.158Z,8.07
2017-03-20T06:17:51.144Z,8.16
2017-03-20T06:18:51.132Z,8.06
2017-03-20T06:19:50.808Z,8.14
2017-03-20T06:20:51.112Z,8.11
2017-03-20T06:21:50.784Z,8.09
2017-03-20T06:22:51.092Z,8.14
2017-03-20T06:23:50.772Z,8.14
2017-03-20T06:24:51.076Z,8.07
2017-03-20T06:25:51.054Z,8.19
2017-03-20T06:26:51.046Z,8.11
2017-03-20T06:27:51.041Z,8.22
2017-03-20T06:28:51.027Z,8.22
2017-03-20T06:29:51.018Z,8.24
2017-03-20T06:30:51.005Z,8.29
2017-03-20T06:31:50.679Z,8.31
2017-03-20T06:32:50.979Z,8.22
2017-03-20T06:33:50.979Z,8.31
2017-03-20T06:34:50.968Z,8.26
2017-03-20T06:35:50.957Z,8.28
2017-03-20T06:36:50.632Z,8.28
2017-03-20T06:37:50.935Z,8.39
2017-03-20T06:38:50.926Z,8.44
2017-03-20T06:39:50.910Z,8.49
2017-03-20T06:40:50.898Z,8.47
2017-03-20T06:41:50.892Z,8.61
2017-03-20T06:42:50.886Z,8.61
2017-03-20T06:43:50.878Z,8.62
2017-03-20T06:44:50.869Z,8.65
2017-03-20T06:45:50.847Z,8.72
2017-03-20T06:46:50.844Z,8.76
2017-03-20T06:47:50.830Z,8.71
2017-03-20T06:48:50.831Z,8.72
2017-03-20T06:49:50.812Z,8.74
2017-03-20T06:50:50.486Z,8.72
2017-03-20T06:51:50.477Z,8.72
2017-03-20T06:52:50.785Z,8.79
2017-03-20T06:53:50.774Z,8.76
2017-03-20T06:54:50.759Z,8.83
2017-03-20T06:55:50.437Z,8.86
2017-03-20T06:56:50.745Z,8.71
2017-03-20T06:57:50.419Z,8.76
2017-03-20T06:58:50.720Z,8.76
2017-03-20T06:59:50.716Z,8.72
2017-03-20T07:00:50.392Z,8.74
2017-03-20T07:01:50.692Z,8.6
2017-03-20T07:02:50.685Z,8.64
2017-03-20T07:03:50.675Z,8.67
2017-03-20T07:04:50.668Z,8.54
2017-03-20T07:05:50.646Z,8.64
2017-03-20T07:06:50.643Z,8.49
2017-03-20T07:07:50.324Z,8.43
2017-03-20T07:08:50.622Z,8.39
2017-03-20T07:09:50.617Z,8.42
2017-03-20T07:10:50.607Z,8.44
2017-03-20T07:11:50.591Z,8.31
2017-03-20T07:12:50.589Z,8.43
2017-03-20T07:13:50.577Z,8.43
2017-03-20T07:14:50.562Z,8.58
2017-03-20T07:15:50.555Z,8.53
2017-03-20T07:16:50.540Z,8.61
2017-03-20T07:17:50.532Z,8.69
2017-03-20T07:18:50.528Z,8.62
2017-03-20T07:19:50.203Z,8.71
2017-03-20T07:20:50.534Z,8.8
2017-03-20T07:21:50.493Z,8.89
2017-03-20T07:22:50.486Z,8.98
2017-03-20T07:23:50.474Z,9.03
2017-03-20T07:24:50.148Z,9.19
2017-03-20T07:25:50.454Z,9.44
2017-03-20T07:26:50.440Z,9.5
2017-03-20T07:27:50.437Z,9.56
2017-03-20T07:28:50.428Z,9.7
2017-03-20T07:29:50.426Z,9.64
2017-03-20T07:30:50.133Z,9.7
2017-03-20T07:31:50.394Z,9.8
2017-03-20T07:32:50.392Z,9.82
2017-03-20T07:33:50.380Z,9.98
2017-03-20T07:34:50.369Z,10.03
2017-03-20T07:35:50.359Z,10.02
2017-03-20T07:36:50.046Z,10.02
2017-03-20T07:37:50.347Z,9.93
2017-03-20T07:38:50.025Z,9.74
2017-03-20T07:39:50.321Z,9.72
2017-03-20T07:40:50.006Z,9.6
2017-03-20T07:41:50.303Z,9.57
2017-03-20T07:42:50.302Z,9.63
2017-03-20T07:43:50.295Z,9.47
2017-03-20T07:44:50.280Z,9.47
2017-03-20T07:45:50.272Z,9.52
2017-03-20T07:46:50.261Z,9.48
2017-03-20T07:47:49.938Z,9.48
2017-03-20T07:48:50.250Z,9.38
2017-03-20T07:49:49.921Z,9.29
2017-03-20T07:50:50.267Z,9.37
2017-03-20T07:51:50.220Z,9.37
2017-03-20T07:52:50.219Z,9.34
2017-03-20T07:53:50.203Z,9.34
2017-03-20T07:54:50.190Z,9.27
2017-03-20T07:55:49.550Z,9.41
2017-03-20T07:56:50.171Z,9.41
2017-03-20T07:57:49.852Z,9.45
2017-03-20T07:58:49.535Z,9.44
2017-03-20T07:59:49.833Z,9.35
2017-03-20T08:00:50.134Z,9.35
2017-03-20T08:01:49.811Z,9.38
2017-03-20T08:02:49.806Z,9.27
2017-03-20T08:03:50.113Z,9.21
2017-03-20T08:04:50.104Z,9.29
2017-03-20T08:05:49.776Z,9.14
2017-03-20T08:06:50.084Z,9.04
2017-03-20T08:07:49.763Z,9.01
2017-03-20T08:08:50.077Z,9.03
2017-03-20T08:09:50.061Z,9.08
2017-03-20T08:10:50.054Z,9.12
2017-03-20T08:11:50.043Z,9.12
2017-03-20T08:12:50.034Z,8.98
2017-03-20T08:13:50.023Z,9.05
2017-03-20T08:14:50.022Z,9.05
2017-03-20T08:15:50.001Z,9.05
2017-03-20T08:16:49.992Z,9.19
2017-03-20T08:17:49.384Z,9.17
2017-03-20T08:18:49.976Z,9.23
2017-03-20T08:19:49.963Z,9.26
2017-03-20T08:20:49.951Z,9.29
2017-03-20T08:21:49.952Z,9.35
2017-03-20T08:22:49.624Z,9.34
2017-03-20T08:23:49.927Z,9.38
2017-03-20T08:24:49.289Z,9.34
2017-03-20T08:25:49.624Z,9.3
2017-03-20T08:26:49.895Z,9.3
2017-03-20T08:27:49.890Z,9.29
2017-03-20T08:28:49.878Z,9.23
2017-03-20T08:29:49.871Z,9.27
2017-03-20T08:30:49.859Z,9.34
2017-03-20T08:31:49.852Z,9.35
2017-03-20T08:32:49.529Z,9.41
2017-03-20T08:33:49.836Z,9.39
2017-03-20T08:34:49.824Z,9.34
2017-03-20T08:35:49.813Z,9.27
2017-03-20T08:36:49.807Z,9.3
2017-03-20T08:37:49.798Z,9.19
2017-03-20T08:38:49.472Z,9.19
2017-03-20T08:39:49.822Z,9.21
2017-03-20T08:40:49.768Z,9.21
2017-03-20T08:41:49.443Z,9.23
2017-03-20T08:42:49.758Z,9.21
2017-03-20T08:43:49.436Z,9.17
2017-03-20T08:44:49.423Z,9.17
2017-03-20T08:45:49.407Z,9.17
2017-03-20T08:46:49.714Z,9.17
2017-03-20T08:47:49.391Z,9.24
2017-03-20T08:48:49.697Z,9.32
2017-03-20T08:49:49.370Z,9.38
2017-03-20T08:50:49.683Z,9.3
2017-03-20T08:51:49.353Z,9.47
2017-03-20T08:52:49.347Z,9.53
2017-03-20T08:53:49.337Z,9.44
2017-03-20T08:54:49.013Z,9.48
2017-03-20T08:55:49.316Z,9.48
2017-03-20T08:56:49.307Z,9.5
2017-03-20T08:57:49.613Z,9.55
2017-03-20T08:58:49.606Z,9.5
2017-03-20T08:59:49.281Z,9.5
2017-03-20T09:00:49.630Z,9.53
2017-03-20T09:01:49.266Z,9.53
2017-03-20T09:02:49.254Z,9.53
2017-03-20T09:03:48.931Z,9.66
2017-03-20T09:04:49.550Z,9.63
2017-03-20T09:05:49.538Z,9.53
2017-03-20T09:06:49.531Z,9.56
2017-03-20T09:07:49.525Z,9.55
2017-03-20T09:08:49.516Z,9.47
2017-03-20T09:09:49.507Z,9.27
2017-03-20T09:10:49.494Z,9.3
2017-03-20T09:11:49.485Z,9.32
2017-03-20T09:12:49.480Z,9.37
2017-03-20T09:13:49.481Z,9.34
2017-03-20T09:14:49.458Z,9.37
2017-03-20T09:15:49.449Z,9.47
2017-03-20T09:16:49.449Z,9.55
2017-03-20T09:17:49.430Z,9.52
2017-03-20T09:18:49.428Z,9.6
2017-03-20T09:19:49.417Z,9.47
2017-03-20T09:20:49.407Z,9.52
2017-03-20T09:21:49.393Z,9.45
2017-03-20T09:22:49.392Z,9.57
2017-03-20T09:23:49.380Z,9.66
2017-03-20T09:24:49.053Z,9.67
2017-03-20T09:25:49.359Z,9.67
2017-03-20T09:26:49.353Z,9.64
2017-03-20T09:27:49.355Z,9.71
2017-03-20T09:28:49.336Z,9.67
2017-03-20T09:29:49.327Z,9.67
2017-03-20T09:30:49.315Z,9.64
2017-03-20T09:31:49.305Z,9.62
2017-03-20T09:32:49.298Z,9.7
2017-03-20T09:33:49.296Z,9.74
2017-03-20T09:34:48.965Z,9.74
2017-03-20T09:35:48.645Z,9.78
2017-03-20T09:36:49.258Z,9.78
2017-03-20T09:37:49.257Z,9.81
2017-03-20T09:38:49.251Z,9.92
2017-03-20T09:39:49.234Z,9.81
2017-03-20T09:40:49.231Z,9.95
2017-03-20T09:41:49.221Z,9.92
2017-03-20T09:42:49.228Z,9.99
2017-03-20T09:43:49.206Z,10.05
2017-03-20T09:44:49.195Z,10.18
2017-03-20T09:45:49.187Z,10.15
2017-03-20T09:46:49.177Z,10.1
2017-03-20T09:47:49.169Z,10.21
2017-03-20T09:48:49.167Z,10.18
2017-03-20T09:49:48.839Z,10.17
2017-03-20T09:50:49.143Z,10.1
2017-03-20T09:51:49.134Z,10.02
2017-03-20T09:52:48.499Z,10.1
2017-03-20T09:53:48.802Z,10.17
2017-03-20T09:54:48.795Z,10.11
2017-03-20T09:55:49.099Z,10.13
2017-03-20T09:56:48.780Z,10.2
2017-03-20T09:57:49.086Z,10.23
2017-03-20T09:58:49.079Z,10.25
2017-03-20T09:59:49.067Z,10.21
2017-03-20T10:00:49.056Z,10.28
2017-03-20T10:01:49.056Z,10.28
2017-03-20T10:02:49.046Z,10.23
2017-03-20T10:03:49.038Z,10.14
2017-03-20T10:04:49.027Z,10.14
2017-03-20T10:05:49.014Z,10.08
2017-03-20T10:06:49.008Z,10.05
2017-03-20T10:07:48.999Z,10
2017-03-20T10:08:49.002Z,10.05
2017-03-20T10:09:48.987Z,10.03
2017-03-20T10:10:48.974Z,10.11
2017-03-20T10:11:48.967Z,10.08
2017-03-20T10:12:48.960Z,10.11
2017-03-20T10:13:48.955Z,10
2017-03-20T10:14:48.939Z,10.14
2017-03-20T10:15:48.942Z,10.11
2017-03-20T10:16:48.614Z,10.31
2017-03-20T10:17:48.918Z,10.28
2017-03-20T10:18:48.912Z,10.44
2017-03-20T10:19:48.906Z,10.72
2017-03-20T10:20:48.888Z,10.8
2017-03-20T10:21:48.885Z,10.9
2017-03-20T10:22:48.882Z,10.95
2017-03-20T10:23:48.874Z,11.09
2017-03-20T10:24:48.861Z,11.13
2017-03-20T10:25:48.851Z,11.21
2017-03-20T10:26:48.848Z,11.35
2017-03-20T10:27:48.840Z,11.3
2017-03-20T10:28:48.830Z,11.09
2017-03-20T10:29:48.196Z,11.06
2017-03-20T10:30:48.814Z,10.92
2017-03-20T10:31:48.805Z,10.94
2017-03-20T10:32:48.800Z,10.8
2017-03-20T10:33:48.796Z,10.67
2017-03-20T10:34:48.785Z,10.66
2017-03-20T10:35:48.461Z,10.67
2017-03-20T10:36:48.453Z,10.7
2017-03-20T10:37:48.445Z,10.66
2017-03-20T10:38:48.441Z,10.66
2017-03-20T10:39:48.743Z,10.8
2017-03-20T10:40:48.426Z,10.75
2017-03-20T10:41:48.725Z,10.84
2017-03-20T10:42:48.733Z,10.9
2017-03-20T10:43:48.721Z,11.02
2017-03-20T10:44:48.706Z,11.1
2017-03-20T10:45:48.696Z,11.13
2017-03-20T10:46:48.690Z,11.23
2017-03-20T10:47:48.688Z,11.31
2017-03-20T10:48:48.681Z,11.43
2017-03-20T10:49:48.673Z,11.41
2017-03-20T10:50:48.698Z,11.56
2017-03-20T10:51:48.350Z,11.67
2017-03-20T10:52:48.020Z,11.61
2017-03-20T10:53:48.331Z,11.63
2017-03-20T10:54:48.321Z,11.48
2017-03-20T10:55:48.635Z,11.42
2017-03-20T10:56:48.617Z,11.38
2017-03-20T10:57:48.298Z,11.52
2017-03-20T10:58:48.610Z,11.51
2017-03-20T10:59:48.598Z,11.53
2017-03-20T11:00:48.592Z,11.61
2017-03-20T11:01:48.586Z,11.63
2017-03-20T11:02:48.582Z,11.68
2017-03-20T11:03:48.573Z,11.78
2017-03-20T11:04:48.249Z,11.67
2017-03-20T11:05:48.244Z,11.67
2017-03-20T11:06:48.234Z,11.73
2017-03-20T11:07:47.919Z,11.67
2017-03-20T11:08:48.550Z,11.53
2017-03-20T11:09:48.536Z,11.56
2017-03-20T11:10:48.526Z,11.48
2017-03-20T11:11:48.203Z,11.56
2017-03-20T11:12:48.509Z,11.46
2017-03-20T11:13:48.199Z,11.45
2017-03-20T11:14:48.500Z,11.35
2017-03-20T11:15:48.493Z,11.41
2017-03-20T11:16:48.478Z,11.46
2017-03-20T11:17:48.479Z,11.43
2017-03-20T11:18:48.469Z,11.61
2017-03-20T11:19:48.463Z,11.56
2017-03-20T11:20:48.453Z,11.57
2017-03-20T11:21:48.446Z,11.61
2017-03-20T11:22:48.128Z,11.68
2017-03-20T11:23:48.441Z,11.66
2017-03-20T11:24:48.112Z,11.63
2017-03-20T11:25:48.424Z,11.6
2017-03-20T11:26:48.102Z,11.67
2017-03-20T11:27:48.412Z,11.66
2017-03-20T11:28:48.403Z,11.59
2017-03-20T11:29:48.391Z,11.66
2017-03-20T11:30:48.105Z,11.61
2017-03-20T11:31:48.066Z,11.61
2017-03-20T11:32:48.376Z,11.67
2017-03-20T11:33:48.367Z,11.66
2017-03-20T11:34:48.045Z,11.66
2017-03-20T11:35:48.352Z,11.67
2017-03-20T11:36:48.343Z,11.67
2017-03-20T11:37:48.024Z,11.63
2017-03-20T11:38:48.335Z,11.49
2017-03-20T11:39:47.695Z,11.57
2017-03-20T11:40:48.317Z,11.56
2017-03-20T11:41:47.994Z,11.48
2017-03-20T11:42:48.314Z,11.51
2017-03-20T11:43:48.302Z,11.59
2017-03-20T11:44:47.979Z,11.76
2017-03-20T11:45:47.973Z,11.95
2017-03-20T11:46:47.965Z,12
2017-03-20T11:47:48.284Z,12.05
2017-03-20T11:48:47.637Z,12.08
2017-03-20T11:49:47.632Z,12.16
2017-03-20T11:50:47.622Z,12.15
2017-03-20T11:51:47.615Z,11.98
2017-03-20T11:52:47.613Z,12.04
2017-03-20T11:53:47.606Z,12.01
2017-03-20T11:54:47.919Z,11.88
2017-03-20T11:55:48.225Z,11.82
2017-03-20T11:56:47.586Z,11.82
2017-03-20T11:57:47.894Z,11.76
2017-03-20T11:58:48.205Z,12.03
2017-03-20T11:59:48.192Z,12.2
2017-03-20T12:00:47.879Z,12.33
2017-03-20T12:01:47.866Z,12.43
2017-03-20T12:02:47.868Z,12.66
2017-03-20T12:03:48.169Z,12.74
2017-03-20T12:04:47.849Z,12.89
2017-03-20T12:05:47.845Z,12.94
2017-03-20T12:06:47.839Z,12.98
2017-03-20T12:07:47.832Z,12.95
2017-03-20T12:08:47.515Z,13.09
2017-03-20T12:09:47.822Z,13.13
2017-03-20T12:10:47.498Z,13.19
2017-03-20T12:11:47.490Z,13.29
2017-03-20T12:12:47.489Z,13.28
2017-03-20T12:13:47.480Z,13.27
2017-03-20T12:14:47.797Z,13.21
2017-03-20T12:15:47.783Z,13.1
2017-03-20T12:16:47.778Z,13.09
2017-03-20T12:17:47.777Z,12.92
2017-03-20T12:18:47.766Z,12.98
2017-03-20T12:19:48.083Z,12.96
2017-03-20T12:20:48.068Z,12.86
2017-03-20T12:21:47.749Z,12.89
2017-03-20T12:22:48.065Z,12.95
2017-03-20T12:23:48.058Z,12.96
2017-03-20T12:24:47.737Z,13.14
2017-03-20T12:25:47.733Z,13.27
2017-03-20T12:26:47.727Z,13.16
2017-03-20T12:27:48.034Z,13.09
2017-03-20T12:28:47.717Z,13.11
2017-03-20T12:29:47.713Z,13.06
2017-03-20T12:30:48.025Z,13.14
2017-03-20T12:31:47.698Z,13.13
2017-03-20T12:32:47.701Z,13.13
2017-03-20T12:33:47.686Z,13.06
2017-03-20T12:34:47.994Z,13.09
2017-03-20T12:35:47.987Z,13.11
2017-03-20T12:36:47.669Z,13.13
2017-03-20T12:37:47.983Z,13.07
2017-03-20T12:38:47.671Z,12.99
2017-03-20T12:39:47.653Z,13.06
2017-03-20T12:40:47.649Z,13.02
2017-03-20T12:41:47.643Z,13.07
2017-03-20T12:42:47.640Z,12.89
2017-03-20T12:43:47.631Z,12.86
2017-03-20T12:44:47.626Z,12.89
2017-03-20T12:45:47.616Z,12.83
2017-03-20T12:46:47.613Z,12.81
2017-03-20T12:47:47.617Z,12.86
2017-03-20T12:48:47.291Z,12.92
2017-03-20T12:49:47.920Z,12.94
2017-03-20T12:50:47.595Z,12.95
2017-03-20T12:51:47.902Z,12.91
2017-03-20T12:52:47.898Z,12.8
2017-03-20T12:53:47.579Z,12.76
2017-03-20T12:54:47.584Z,12.7
2017-03-20T12:55:47.569Z,12.61
2017-03-20T12:56:47.872Z,12.61
2017-03-20T12:57:47.872Z,12.51
2017-03-20T12:58:47.865Z,12.43
2017-03-20T12:59:47.861Z,12.23
2017-03-20T13:00:47.852Z,12.37
2017-03-20T13:01:47.845Z,12.31
2017-03-20T13:02:47.846Z,12.29
2017-03-20T13:03:47.521Z,12.29
2017-03-20T13:04:47.832Z,12.23
2017-03-20T13:05:47.826Z,12.2
2017-03-20T13:06:47.818Z,12.23
2017-03-20T13:07:47.506Z,12.15
2017-03-20T13:08:47.496Z,12.18
2017-03-20T13:09:47.801Z,12.1
2017-03-20T13:10:47.793Z,12.05
2017-03-20T13:11:47.786Z,12.01
2017-03-20T13:12:47.789Z,12.08
2017-03-20T13:13:47.778Z,12.08
2017-03-20T13:14:47.771Z,12.18